Time;durP1;ratioP1;P1;durP2;ratioP2;P2;SDS_P1;SDS_P2;PMS_P1;PMS_P2;Temp;Humidity;BMP_temperature;BMP_pressure;BME280_temperature;BME280_humidity;BME280_pressure;Samples;Min_cycle;Max_cycle;Signal;HPM_P1;HPM_P2
2022/10/08 00:01:15;;;;;;;0.60;0.60;;;;;;;5.48;100.00;100044.72;4995731;28;20050;-83
2022/10/08 00:04:02;;;;;;;0.60;0.60;;;;;;;5.43;100.00;100040.72;4996078;28;20486;-84
2022/10/08 00:06:30;;;;;;;0.60;0.60;;;;;;;5.39;100.00;100039.47;4995834;28;20077;-84
2022/10/08 00:09:03;;;;;;;0.60;0.60;;;;;;;5.46;100.00;100039.53;4978035;28;20074;-85
2022/10/08 00:11:33;;;;;;;0.60;0.60;;;;;;;5.41;100.00;100026.69;4961565;28;20097;-84
2022/10/08 00:14:00;;;;;;;0.60;0.60;;;;;;;5.39;100.00;100028.75;4973799;28;20070;-84
2022/10/08 00:16:37;;;;;;;0.60;0.60;;;;;;;5.48;100.00;100034.00;4958332;28;20077;-85
2022/10/08 00:19:07;;;;;;;0.70;0.70;;;;;;;5.40;100.00;100021.53;4975065;28;20055;-84
2022/10/08 00:21:36;;;;;;;0.70;0.70;;;;;;;5.50;100.00;100046.19;4975185;28;20057;-85
2022/10/08 00:24:05;;;;;;;0.70;0.70;;;;;;;5.53;100.00;100042.31;4975044;28;20086;-85
2022/10/08 00:26:33;;;;;;;0.60;0.60;;;;;;;5.55;100.00;100037.59;4975120;28;20417;-84
2022/10/08 00:29:08;;;;;;;0.70;0.70;;;;;;;5.50;100.00;100040.00;4973764;28;20117;-85
2022/10/08 00:31:39;;;;;;;0.70;0.70;;;;;;;5.58;100.00;100030.00;4975050;28;20524;-84
2022/10/08 00:34:11;;;;;;;0.70;0.70;;;;;;;5.63;100.00;100040.16;4974895;28;20137;-85
2022/10/08 00:36:39;;;;;;;0.70;0.70;;;;;;;5.61;100.00;100029.63;4974017;28;20057;-84
2022/10/08 00:39:10;;;;;;;0.70;0.70;;;;;;;5.68;100.00;100043.09;4975248;28;20146;-84
2022/10/08 00:41:38;;;;;;;0.60;0.60;;;;;;;5.67;100.00;100038.75;4975230;28;20078;-85
2022/10/08 00:44:42;;;;;;;0.65;0.65;;;;;;;5.76;100.00;100037.63;4974238;28;20046;-84
2022/10/08 00:47:23;;;;;;;0.70;0.70;;;;;;;5.79;100.00;100036.44;4975051;28;20059;-84
2022/10/08 00:49:54;;;;;;;0.60;0.60;;;;;;;5.81;100.00;100026.38;4990282;28;20101;-84
2022/10/08 00:52:22;;;;;;;0.70;0.70;;;;;;;5.97;100.00;100036.88;4975283;28;20090;-85
2022/10/08 00:54:50;;;;;;;0.60;0.60;;;;;;;6.03;100.00;100038.81;4989619;28;20058;-84
2022/10/08 00:57:19;;;;;;;0.60;0.60;;;;;;;6.10;100.00;100040.72;4989595;28;20514;-84
2022/10/08 00:59:46;;;;;;;0.60;0.60;;;;;;;6.12;100.00;100039.50;4974707;28;20528;-85
2022/10/08 01:02:13;;;;;;;0.60;0.60;;;;;;;6.07;100.00;100031.22;4973311;28;20134;-84
2022/10/08 01:04:41;;;;;;;0.70;0.70;;;;;;;6.18;100.00;100040.59;4991400;28;20636;-84
2022/10/08 01:07:21;;;;;;;0.60;0.60;;;;;;;6.21;100.00;100037.56;4991464;28;20042;-85
2022/10/08 01:10:10;;;;;;;0.60;0.60;;;;;;;6.27;100.00;100042.97;4975395;28;20505;-85
2022/10/08 01:12:45;;;;;;;0.60;0.60;;;;;;;6.31;100.00;100043.44;4977720;28;20062;-84
2022/10/08 01:15:39;;;;;;;0.60;0.60;;;;;;;6.30;100.00;100036.38;4976290;28;20073;-85
2022/10/08 01:18:11;;;;;;;0.60;0.60;;;;;;;6.35;100.00;100036.63;4992454;28;20133;-85
2022/10/08 01:20:50;;;;;;;0.60;0.60;;;;;;;6.40;100.00;100046.78;4976750;28;20061;-85
2022/10/08 01:23:36;;;;;;;0.60;0.60;;;;;;;6.43;100.00;100046.41;4993937;28;20510;-84
2022/10/08 01:26:50;;;;;;;0.60;0.60;;;;;;;6.44;100.00;100056.94;4992381;28;20144;-85
2022/10/08 01:29:24;;;;;;;0.60;0.60;;;;;;;6.39;100.00;100059.38;4952429;29;20058;-85
2022/10/08 01:32:02;;;;;;;0.60;0.60;;;;;;;6.39;100.00;100058.56;4952176;29;20047;-84
2022/10/08 01:34:35;;;;;;;0.60;0.60;;;;;;;6.43;100.00;100051.78;4954632;29;20047;-87
2022/10/08 01:37:08;;;;;;;0.57;0.57;;;;;;;6.41;100.00;100056.53;4952505;29;20047;-85
2022/10/08 01:39:37;;;;;;;0.60;0.60;;;;;;;6.35;100.00;100051.91;4952318;29;20055;-85
2022/10/08 01:42:06;;;;;;;0.50;0.50;;;;;;;6.39;100.00;100061.22;4951848;29;20522;-85
2022/10/08 01:44:48;;;;;;;0.60;0.60;;;;;;;6.32;100.00;100054.97;4936104;29;20047;-85
2022/10/08 01:47:19;;;;;;;0.60;0.60;;;;;;;6.15;100.00;100046.34;4951952;29;20608;-85
2022/10/08 01:49:55;;;;;;;0.60;0.60;;;;;;;6.20;100.00;100055.50;4936099;29;20055;-84
2022/10/08 01:52:26;;;;;;;0.68;0.68;;;;;;;6.21;100.00;100049.09;4951982;29;20063;-84
2022/10/08 01:54:58;;;;;;;0.60;0.60;;;;;;;6.17;100.00;100030.91;4935992;29;20051;-83
2022/10/08 01:57:28;;;;;;;0.60;0.60;;;;;;;6.32;100.00;100050.44;4898450;29;20495;-85
2022/10/08 02:00:01;;;;;;;0.60;0.60;;;;;;;6.35;100.00;100054.59;4897855;29;20198;-85
2022/10/08 02:02:38;;;;;;;0.60;0.60;;;;;;;6.31;100.00;100046.09;4914217;29;20158;-84
2022/10/08 02:05:05;;;;;;;0.60;0.60;;;;;;;6.37;100.00;100050.69;4923937;29;20091;-84
2022/10/08 02:07:36;;;;;;;0.60;0.60;;;;;;;6.40;100.00;100058.34;4932964;29;20063;-84
2022/10/08 02:10:18;;;;;;;0.60;0.60;;;;;;;6.34;100.00;100036.84;4916748;29;20146;-84
2022/10/08 02:12:45;;;;;;;0.60;0.60;;;;;;;6.40;100.00;100047.63;4932467;29;20059;-84
2022/10/08 02:15:16;;;;;;;0.60;0.60;;;;;;;6.39;100.00;100045.97;4932550;29;20052;-85
2022/10/08 02:18:09;;;;;;;0.60;0.60;;;;;;;6.39;100.00;100054.00;4932758;29;20139;-83
2022/10/08 02:20:49;;;;;;;0.60;0.60;;;;;;;6.38;100.00;100059.56;4932583;29;20656;-85
2022/10/08 02:23:23;;;;;;;0.60;0.60;;;;;;;6.38;100.00;100055.06;4932560;29;20142;-84
2022/10/08 02:25:54;;;;;;;0.60;0.60;;;;;;;6.32;100.00;100052.28;4932607;29;20059;-85
2022/10/08 02:28:45;;;;;;;0.50;0.50;;;;;;;6.42;100.00;100060.84;4932738;29;20123;-84
2022/10/08 02:31:30;;;;;;;0.60;0.60;;;;;;;6.41;100.00;100065.38;4932078;29;20059;-85
2022/10/08 02:34:07;;;;;;;0.63;0.63;;;;;;;6.40;100.00;100061.03;4932172;29;20079;-85
2022/10/08 02:36:38;;;;;;;0.60;0.60;;;;;;;6.42;100.00;100067.03;4932281;29;20589;-84
2022/10/08 02:39:05;;;;;;;0.60;0.60;;;;;;;6.42;100.00;100064.34;4916277;29;20043;-84
2022/10/08 02:41:52;;;;;;;0.60;0.60;;;;;;;6.44;100.00;100075.72;4965861;28;20058;-84
2022/10/08 02:44:23;;;;;;;0.60;0.60;;;;;;;6.42;100.00;100067.03;4990926;28;20153;-84
2022/10/08 02:46:52;;;;;;;0.60;0.60;;;;;;;6.42;100.00;100061.66;4958988;28;20544;-85
2022/10/08 02:49:24;;;;;;;0.60;0.60;;;;;;;6.44;100.00;100066.84;4991051;28;20053;-84
2022/10/08 02:51:53;;;;;;;0.60;0.60;;;;;;;6.45;100.00;100066.66;4974472;28;20568;-84
2022/10/08 02:54:22;;;;;;;0.60;0.60;;;;;;;6.45;100.00;100055.91;4990928;28;20425;-84
2022/10/08 02:57:20;;;;;;;0.65;0.65;;;;;;;6.49;100.00;100062.56;4992006;28;20509;-85
2022/10/08 02:59:47;;;;;;;0.70;0.70;;;;;;;6.47;100.00;100053.88;4973317;28;20042;-84
2022/10/08 03:02:26;;;;;;;0.60;0.60;;;;;;;6.47;100.00;100053.88;4991154;28;20050;-84
2022/10/08 03:04:58;;;;;;;0.60;0.60;;;;;;;6.48;100.00;100060.06;4991065;28;20062;-85
2022/10/08 03:07:29;;;;;;;0.60;0.60;;;;;;;6.48;100.00;100054.69;4990933;28;20061;-85
2022/10/08 03:09:58;;;;;;;0.60;0.60;;;;;;;6.54;100.00;100055.81;4990698;28;20058;-84
2022/10/08 03:12:25;;;;;;;0.60;0.60;;;;;;;6.54;100.00;100056.63;4974572;28;20089;-84
2022/10/08 03:14:52;;;;;;;0.60;0.60;;;;;;;6.53;100.00;100056.81;4991970;28;20151;-83
2022/10/08 03:17:41;;;;;;;0.60;0.60;;;;;;;6.58;100.00;100057.88;4990643;28;20065;-84
2022/10/08 03:20:09;;;;;;;0.60;0.60;;;;;;;6.60;100.00;100060.38;4974381;28;20502;-84
2022/10/08 03:22:36;;;;;;;0.60;0.60;;;;;;;6.62;100.00;100056.50;4990708;28;20054;-85
2022/10/08 03:25:04;;;;;;;0.60;0.60;;;;;;;6.61;100.00;100064.72;4991598;28;20501;-85
2022/10/08 03:27:33;;;;;;;0.60;0.60;;;;;;;6.63;100.00;100062.69;4990731;28;20084;-85
2022/10/08 03:30:01;;;;;;;0.60;0.60;;;;;;;6.66;100.00;100059.59;4992045;28;20050;-85
2022/10/08 03:32:30;;;;;;;0.60;0.60;;;;;;;6.67;99.95;100058.59;4992364;28;20054;-84
2022/10/08 03:34:57;;;;;;;0.60;0.60;;;;;;;6.68;99.71;100061.09;4992451;28;20054;-85
2022/10/08 03:37:24;;;;;;;0.60;0.60;;;;;;;6.69;99.42;100057.38;4993759;28;20464;-84
2022/10/08 03:39:51;;;;;;;0.60;0.60;;;;;;;6.68;99.60;100058.41;4992629;28;20050;-85
2022/10/08 03:42:18;;;;;;;0.60;0.60;;;;;;;6.69;99.43;100059.25;4990440;28;20426;-85
2022/10/08 03:44:45;;;;;;;0.60;0.60;;;;;;;6.69;99.51;100056.56;4991539;28;20188;-84
2022/10/08 03:47:12;;;;;;;0.60;0.60;;;;;;;6.71;99.27;100062.56;4991314;28;20050;-84
2022/10/08 03:49:40;;;;;;;0.60;0.60;;;;;;;6.77;99.31;100059.09;4991428;28;20069;-84
2022/10/08 03:52:07;;;;;;;0.50;0.50;;;;;;;6.80;99.29;100068.63;4991524;28;20054;-84
2022/10/08 03:54:34;;;;;;;0.60;0.60;;;;;;;6.80;99.30;100066.75;4974263;28;20054;-83
2022/10/08 03:57:02;;;;;;;0.60;0.60;;;;;;;6.82;99.15;100067.41;4993033;28;20058;-84
2022/10/08 03:59:29;;;;;;;0.60;0.60;;;;;;;6.83;99.01;100058.31;4992604;28;20046;-84
2022/10/08 04:01:56;;;;;;;0.60;0.60;;;;;;;6.86;98.98;100067.81;4973969;28;20054;-85
2022/10/08 04:04:23;;;;;;;0.60;0.60;;;;;;;6.84;98.80;100059.97;4991636;28;20109;-84
2022/10/08 04:06:51;;;;;;;0.60;0.60;;;;;;;6.90;98.87;100069.09;4991880;28;20052;-85
2022/10/08 04:09:18;;;;;;;0.60;0.60;;;;;;;6.92;98.75;100067.88;4973594;28;20163;-84
2022/10/08 04:11:45;;;;;;;0.60;0.60;;;;;;;6.95;98.61;100066.66;4991231;28;20058;-85
2022/10/08 04:14:12;;;;;;;0.60;0.60;;;;;;;6.98;98.42;100070.81;4990976;28;20064;-85
2022/10/08 04:16:39;;;;;;;0.55;0.55;;;;;;;6.99;98.22;100061.72;4991513;28;20097;-85
2022/10/08 04:19:06;;;;;;;0.60;0.60;;;;;;;7.03;98.14;100057.63;4991459;28;20046;-85
2022/10/08 04:21:33;;;;;;;0.60;0.60;;;;;;;7.05;98.36;100058.28;4991495;28;20055;-84
2022/10/08 04:24:00;;;;;;;0.60;0.60;;;;;;;7.09;98.29;100067.59;4974857;28;20216;-85
2022/10/08 04:26:27;;;;;;;0.60;0.60;;;;;;;7.11;98.11;100065.53;4991984;28;20093;-86
2022/10/08 04:28:54;;;;;;;0.60;0.60;;;;;;;7.11;97.67;100065.53;4994046;28;20272;-84
2022/10/08 04:31:22;;;;;;;0.60;0.60;;;;;;;7.13;97.54;100071.53;4977129;28;20125;-85
2022/10/08 04:33:50;;;;;;;0.60;0.60;;;;;;;7.13;97.19;100071.53;4994639;28;20113;-85
2022/10/08 04:36:20;;;;;;;0.50;0.50;;;;;;;7.15;97.13;100061.44;4980081;28;20478;-85
2022/10/08 04:38:48;;;;;;;0.60;0.60;;;;;;;7.15;96.92;100062.25;4965597;28;20081;-86
2022/10/08 04:41:21;;;;;;;0.60;0.60;;;;;;;7.18;96.80;100065.59;4984165;28;20572;-85
2022/10/08 04:43:49;;;;;;;0.55;0.55;;;;;;;7.20;96.53;100075.09;4975704;28;20053;-85
2022/10/08 04:46:18;;;;;;;0.60;0.60;;;;;;;7.21;96.64;100067.88;4987866;28;20417;-83
2022/10/08 04:48:53;;;;;;;0.60;0.60;;;;;;;7.23;96.62;100077.41;4982648;28;20406;-84
2022/10/08 04:51:22;;;;;;;0.57;0.57;;;;;;;7.22;96.38;100067.69;4986264;28;20783;-84
2022/10/08 04:53:49;;;;;;;0.52;0.52;;;;;;;7.26;96.50;100070.81;4987979;28;20057;-83
2022/10/08 04:56:24;;;;;;;0.60;0.60;;;;;;;7.27;96.38;100075.97;4989153;28;20529;-84
2022/10/08 04:58:53;;;;;;;0.57;0.57;;;;;;;7.28;96.14;100074.94;4992804;28;20054;-83
2022/10/08 05:01:22;;;;;;;0.52;0.52;;;;;;;7.31;96.00;100077.22;4989510;28;20047;-83
2022/10/08 05:03:54;;;;;;;0.60;0.60;;;;;;;7.35;95.77;100085.75;4988425;28;20082;-82
2022/10/08 05:06:24;;;;;;;0.60;0.60;;;;;;;7.37;95.88;100079.16;4990214;28;20050;-81
2022/10/08 05:08:57;;;;;;;0.60;0.60;;;;;;;7.43;95.80;100082.06;4642393;28;10000583;-83
2022/10/08 05:11:25;;;;;;;0.60;0.60;;;;;;;7.46;95.56;100084.34;4968315;28;20046;-81
2022/10/08 05:13:53;;;;;;;0.60;0.60;;;;;;;7.49;95.29;100086.63;4988332;28;20073;-85
2022/10/08 05:16:21;;;;;;;0.60;0.60;;;;;;;7.54;95.19;100082.31;4988342;28;20101;-83
2022/10/08 05:18:50;;;;;;;0.60;0.60;;;;;;;7.60;94.85;100080.72;4970633;28;20496;-84
2022/10/08 05:21:23;;;;;;;0.60;0.60;;;;;;;7.65;94.32;100086.34;4981874;28;20046;-83
2022/10/08 05:24:02;;;;;;;0.60;0.60;;;;;;;7.66;94.26;100085.28;4957596;28;20042;-86
2022/10/08 05:26:33;;;;;;;0.60;0.60;;;;;;;7.70;94.13;100100.00;4989401;28;20097;-86
2022/10/08 05:29:23;;;;;;;0.60;0.60;;;;;;;7.77;93.82;100087.44;4986110;28;20231;-84
2022/10/08 05:31:50;;;;;;;0.60;0.60;;;;;;;7.85;93.84;100099.00;4963401;28;20502;-81
2022/10/08 05:34:18;;;;;;;0.60;0.60;;;;;;;7.92;94.00;100100.69;4959562;28;20047;-82
2022/10/08 05:36:45;;;;;;;0.60;0.60;;;;;;;8.02;93.47;100103.84;4952854;28;20492;-86
2022/10/08 05:39:12;;;;;;;0.60;0.60;;;;;;;8.09;92.95;100101.19;4973440;28;20050;-83
2022/10/08 05:41:40;;;;;;;0.60;0.60;;;;;;;8.13;92.35;100102.44;4988173;28;20417;-84
2022/10/08 05:44:11;;;;;;;0.60;0.60;;;;;;;8.19;91.90;100095.44;4964118;28;20088;-84
2022/10/08 05:46:39;;;;;;;0.70;0.70;;;;;;;8.25;91.61;100092.78;4989730;28;20055;-83
2022/10/08 05:49:08;;;;;;;0.60;0.60;;;;;;;8.28;90.84;100098.75;4984264;28;20133;-85
2022/10/08 05:51:35;;;;;;;0.60;0.60;;;;;;;8.35;90.95;100096.91;4969771;28;20069;-84
2022/10/08 05:54:02;;;;;;;0.60;0.60;;;;;;;8.44;90.82;100098.44;4988134;28;20062;-85
2022/10/08 05:56:30;;;;;;;0.60;0.60;;;;;;;8.55;90.32;100097.81;4968464;28;20817;-85
2022/10/08 05:58:57;;;;;;;0.60;0.60;;;;;;;8.62;89.58;100089.75;4988017;28;20070;-82
2022/10/08 06:01:27;;;;;;;0.60;0.60;;;;;;;8.68;89.11;100089.78;4971924;28;20058;-84
2022/10/08 06:03:59;;;;;;;0.60;0.60;;;;;;;8.74;89.04;100096.19;4969744;28;20054;-85
2022/10/08 06:06:36;;;;;;;0.60;0.60;;;;;;;8.74;88.46;100098.06;4985099;28;20058;-87
2022/10/08 06:09:03;;;;;;;0.60;0.60;;;;;;;8.72;88.54;100092.06;4986555;28;20046;-85
2022/10/08 06:11:33;;;;;;;0.60;0.60;;;;;;;8.71;88.61;100095.75;4988295;28;20264;-85
2022/10/08 06:14:13;;;;;;;0.60;0.60;;;;;;;8.57;88.96;100100.31;4990717;28;20058;-85
2022/10/08 06:16:41;;;;;;;0.60;0.60;;;;;;;8.41;89.15;100088.09;4970751;28;20049;-85
2022/10/08 06:19:09;;;;;;;0.60;0.60;;;;;;;8.32;89.31;100090.09;4978601;28;20046;-83
2022/10/08 06:21:36;;;;;;;0.70;0.70;;;;;;;8.50;89.71;100092.22;4970545;28;20046;-82
2022/10/08 06:24:06;;;;;;;0.70;0.70;;;;;;;8.68;89.01;100097.84;4965012;28;20819;-85
2022/10/08 06:26:37;;;;;;;0.70;0.70;;;;;;;8.80;87.86;100097.22;4964070;28;20046;-85
2022/10/08 06:29:13;;;;;;;0.60;0.60;;;;;;;8.91;86.96;100099.28;4981882;28;20050;-84
2022/10/08 06:31:41;;;;;;;0.60;0.60;;;;;;;9.03;86.45;100100.31;4983260;28;20116;-86
2022/10/08 06:34:08;;;;;;;0.70;0.70;;;;;;;9.17;86.18;100092.25;4985001;28;20108;-85
2022/10/08 06:36:37;;;;;;;0.70;0.70;;;;;;;9.29;85.54;100101.34;4986067;28;20045;-85
2022/10/08 06:39:09;;;;;;;0.70;0.70;;;;;;;9.43;84.35;100097.59;4963199;28;20058;-84
2022/10/08 06:41:37;;;;;;;0.70;0.70;;;;;;;9.58;83.42;100096.53;4969894;28;20054;-83
2022/10/08 06:44:10;;;;;;;0.70;0.70;;;;;;;9.71;82.85;100099.19;4986159;28;20056;-83
2022/10/08 06:46:37;;;;;;;0.68;0.68;;;;;;;9.91;81.79;100099.13;4985839;28;20057;-84
2022/10/08 06:49:04;;;;;;;0.60;0.60;;;;;;;10.11;81.45;100094.47;4979870;28;20054;-89
2022/10/08 06:51:33;;;;;;;0.70;0.70;;;;;;;10.36;80.07;100091.88;4967293;28;20523;-84
2022/10/08 06:54:00;;;;;;;0.60;0.60;;;;;;;10.53;78.57;100085.94;4983427;28;20058;-85
2022/10/08 06:56:37;;;;;;;0.60;0.60;;;;;;;10.71;77.07;100088.75;4986885;28;20056;-88
2022/10/08 06:59:06;;;;;;;0.60;0.60;;;;;;;10.68;76.67;100094.56;4971099;28;20066;-86
2022/10/08 07:01:33;;;;;;;0.65;0.65;;;;;;;10.84;75.52;100083.25;4983665;28;20046;-83
2022/10/08 07:04:03;;;;;;;0.63;0.63;;;;;;;11.00;74.25;100089.16;4993214;28;20147;-86
2022/10/08 07:06:31;;;;;;;0.60;0.60;;;;;;;11.11;72.86;100087.59;4986554;28;20061;-85
2022/10/08 07:09:01;;;;;;;0.60;0.60;;;;;;;11.14;72.65;100090.69;4957383;28;20194;-83
2022/10/08 07:11:30;;;;;;;0.70;0.70;;;;;;;11.02;72.34;100079.78;4969243;28;20077;-85
2022/10/08 07:14:00;;;;;;;0.70;0.70;;;;;;;11.17;72.13;100073.22;4970165;28;20077;-82
2022/10/08 07:16:31;;;;;;;0.70;0.70;;;;;;;11.30;71.13;100099.28;4968224;28;20085;-83
2022/10/08 07:19:02;;;;;;;0.70;0.70;;;;;;;11.35;71.02;100083.22;4985499;28;20042;-83
2022/10/08 07:21:29;;;;;;;0.70;0.70;;;;;;;11.54;70.20;100081.34;4986441;28;20059;-84
2022/10/08 07:24:00;;;;;;;0.70;0.70;;;;;;;11.65;69.41;100078.72;4970020;28;20479;-84
2022/10/08 07:26:31;;;;;;;0.70;0.70;;;;;;;11.76;68.71;100073.63;4953886;28;20046;-83
2022/10/08 07:29:15;;;;;;;0.70;0.70;;;;;;;11.86;68.22;100084.72;4982828;28;20046;-84
2022/10/08 07:31:43;;;;;;;0.80;0.80;;;;;;;11.98;67.99;100088.38;4960461;28;20064;-84
2022/10/08 07:34:11;;;;;;;0.70;0.70;;;;;;;12.25;67.50;100083.41;4981079;28;20058;-84
2022/10/08 07:36:39;;;;;;;0.70;0.70;;;;;;;12.36;65.51;100077.22;4985407;28;20066;-83
2022/10/08 07:39:10;;;;;;;0.70;0.70;;;;;;;12.42;65.75;100069.25;4965906;28;20133;-84
2022/10/08 07:41:40;;;;;;;0.73;0.73;;;;;;;12.51;64.98;100065.97;4955055;28;20058;-86
2022/10/08 07:44:10;;;;;;;0.70;0.70;;;;;;;12.64;64.86;100078.50;4983940;28;20113;-86
2022/10/08 07:46:42;;;;;;;0.70;0.70;;;;;;;12.98;63.64;100081.50;4986077;28;20058;-85
2022/10/08 07:49:10;;;;;;;0.70;0.70;;;;;;;13.31;63.63;100064.66;4967738;28;20049;-86
2022/10/08 07:51:37;;;;;;;0.70;0.70;;;;;;;13.75;62.16;100065.09;4986250;28;20065;-86
2022/10/08 07:54:08;;;;;;;0.70;0.70;;;;;;;13.94;60.61;100064.94;4972902;28;20161;-82
2022/10/08 07:56:35;;;;;;;0.60;0.60;;;;;;;13.80;60.29;100067.91;4963315;28;20579;-84
2022/10/08 07:59:06;;;;;;;0.63;0.63;;;;;;;14.16;60.22;100065.09;4989829;28;20114;-82
2022/10/08 08:01:36;;;;;;;0.70;0.70;;;;;;;14.39;58.53;100064.16;4957945;28;20050;-83
2022/10/08 08:04:06;;;;;;;0.70;0.70;;;;;;;14.39;58.14;100069.59;4989229;28;20047;-82
2022/10/08 08:06:41;;;;;;;0.70;0.70;;;;;;;14.53;58.12;100062.81;4991523;28;20066;-81
2022/10/08 08:09:13;;;;;;;0.70;0.70;;;;;;;14.41;58.11;100081.88;4989510;28;20085;-82
2022/10/08 08:11:40;;;;;;;0.70;0.70;;;;;;;14.84;56.24;100055.19;4987860;28;20054;-82
2022/10/08 08:14:07;;;;;;;0.50;0.50;;;;;;;14.59;56.15;100050.97;4974172;28;20437;-84
2022/10/08 08:16:34;;;;;;;0.80;0.80;;;;;;;13.96;58.94;100060.09;4993282;28;20525;-83
2022/10/08 08:19:02;;;;;;;0.70;0.70;;;;;;;14.47;56.77;100050.19;4991650;28;20133;-84
2022/10/08 08:21:32;;;;;;;0.70;0.70;;;;;;;14.61;56.40;100048.00;4993157;28;20430;-84
2022/10/08 08:24:10;;;;;;;0.70;0.70;;;;;;;14.10;57.15;100047.88;4969995;28;20438;-88
2022/10/08 08:26:39;;;;;;;0.80;0.80;;;;;;;14.81;55.84;100052.94;5010044;28;20070;-86
2022/10/08 08:29:12;;;;;;;0.70;0.70;;;;;;;15.33;53.44;100047.22;4977447;28;20051;-86
2022/10/08 08:31:44;;;;;;;0.75;0.75;;;;;;;15.72;52.26;100044.50;5009524;28;20054;-86
2022/10/08 08:34:15;;;;;;;0.50;0.50;;;;;;;15.02;53.61;100051.41;4994386;28;20093;-85
2022/10/08 08:36:44;;;;;;;0.80;0.80;;;;;;;15.08;54.86;100037.63;4994297;28;20152;-84
2022/10/08 08:39:20;;;;;;;0.90;0.90;;;;;;;16.19;51.67;100060.31;4993818;28;20054;-84
2022/10/08 08:41:59;;;;;;;0.70;0.70;;;;;;;16.70;50.53;100052.63;4994132;28;20054;-85
2022/10/08 08:44:38;;;;;;;0.88;0.88;;;;;;;17.47;48.31;100036.81;4994026;28;20414;-85
2022/10/08 08:47:05;;;;;;;0.80;0.80;;;;;;;17.39;47.11;100019.03;4975593;28;20058;-84
2022/10/08 08:49:45;;;;;;;0.60;0.60;;;;;;;17.41;46.46;100043.34;4994053;28;20046;-85
2022/10/08 08:52:15;;;;;;;0.70;0.70;;;;;;;16.83;46.55;100043.22;4993013;28;20056;-84
2022/10/08 08:54:45;;;;;;;0.60;0.60;;;;;;;16.04;47.23;100026.38;4992728;28;20054;-85
2022/10/08 08:57:35;;;;;;;0.80;0.80;;;;;;;16.06;48.37;100019.88;4976860;28;20124;-85
2022/10/08 09:00:21;;;;;;;0.50;0.50;;;;;;;15.72;49.33;100053.50;4992371;28;20484;-85
2022/10/08 09:03:02;;;;;;;0.50;0.50;;;;;;;14.56;51.71;100043.31;4992639;28;20104;-85
2022/10/08 09:05:32;;;;;;;0.50;0.50;;;;;;;13.61;54.22;100025.72;5008627;28;20141;-84
2022/10/08 09:08:04;;;;;;;0.80;0.80;;;;;;;14.79;52.52;100025.22;4976879;28;20051;-83
2022/10/08 09:10:39;;;;;;;0.90;0.90;;;;;;;16.01;49.09;100015.19;4992385;28;20497;-83
2022/10/08 09:13:14;;;;;;;0.80;0.80;;;;;;;16.32;47.79;100001.88;4992214;28;20062;-83
2022/10/08 09:15:45;;;;;;;0.90;0.90;;;;;;;16.90;46.58;100001.03;4977237;28;20050;-84
2022/10/08 09:18:14;;;;;;;0.80;0.80;;;;;;;17.15;45.57;99985.91;4992452;28;20433;-85
2022/10/08 09:20:41;;;;;;;0.90;0.90;;;;;;;17.06;46.08;99976.56;4992542;28;20042;-83
2022/10/08 09:23:29;;;;;;;0.90;0.90;;;;;;;17.31;46.04;99984.09;5008237;28;20050;-85
2022/10/08 09:26:21;;;;;;;0.75;0.75;;;;;;;17.43;45.30;100000.25;4993565;28;20564;-85
2022/10/08 09:28:55;;;;;;;0.82;0.82;;;;;;;17.24;45.52;99983.50;4993428;28;20564;-84
2022/10/08 09:31:39;;;;;;;0.90;0.90;;;;;;;17.53;44.59;99978.47;4976090;28;20509;-84
2022/10/08 09:34:08;;;;;;;0.80;0.80;;;;;;;18.32;43.76;99995.63;4993151;28;20454;-84
2022/10/08 09:36:51;;;;;;;0.80;0.80;;;;;;;18.76;42.55;99975.97;4992617;28;20046;-85
2022/10/08 09:39:23;;;;;;;0.85;0.85;;;;;;;19.57;41.48;99985.06;4993213;28;20505;-85
2022/10/08 09:42:14;;;;;;;0.80;0.80;;;;;;;19.65;40.12;99988.06;4993544;28;20105;-85
2022/10/08 09:44:51;;;;;;;0.80;0.80;;;;;;;19.05;40.56;99993.44;4993387;28;20058;-85
2022/10/08 09:47:20;;;;;;;0.85;0.85;;;;;;;18.44;41.92;99968.84;4992911;28;20050;-86
2022/10/08 09:50:20;;;;;;;0.50;0.50;;;;;;;18.54;41.17;99979.78;4994806;28;20051;-85
2022/10/08 09:52:49;;;;;;;0.40;0.40;;;;;;;16.45;45.01;99982.38;4993033;28;20050;-84
2022/10/08 09:55:21;;;;;;;0.88;0.88;;;;;;;16.36;45.94;99971.16;4994383;28;20042;-86
2022/10/08 09:57:51;;;;;;;0.50;0.50;;;;;;;15.66;47.75;99974.75;5009121;28;20054;-85
2022/10/08 10:00:29;;;;;;;0.50;0.50;;;;;;;15.01;49.24;99957.31;4992319;28;20049;-85
2022/10/08 10:02:57;;;;;;;0.50;0.50;;;;;;;14.35;50.95;99957.91;4991993;28;20050;-85
2022/10/08 10:05:30;;;;;;;0.90;0.90;;;;;;;16.10;47.65;99948.28;4992079;28;20519;-85
2022/10/08 10:08:00;;;;;;;0.80;0.80;;;;;;;15.77;47.88;99938.44;4992730;28;20102;-85
2022/10/08 10:10:43;;;;;;;1.00;1.00;;;;;;;16.23;47.12;99969.66;4993120;28;20121;-84
2022/10/08 10:13:21;;;;;;;0.68;0.68;;;;;;;16.96;45.84;99930.16;4990252;28;20064;-86
2022/10/08 10:15:57;;;;;;;0.90;0.90;;;;;;;18.44;41.94;99933.31;4992097;28;20051;-84
2022/10/08 10:18:51;;;;;;;0.80;0.80;;;;;;;18.58;41.19;99925.38;4992512;28;20417;-85
2022/10/08 10:21:47;;;;;;;0.90;0.90;;;;;;;19.10;40.30;99932.41;4991184;28;20101;-85
2022/10/08 10:24:19;;;;;;;0.90;0.90;;;;;;;19.90;39.62;99920.56;4991344;28;20058;-85
2022/10/08 10:26:48;;;;;;;0.90;0.90;;;;;;;20.45;37.83;99939.59;4991915;28;20088;-86
2022/10/08 10:29:21;;;;;;;0.80;0.80;;;;;;;20.22;38.32;99931.03;4990650;28;20050;-86
2022/10/08 10:31:53;;;;;;;0.80;0.80;;;;;;;20.21;38.16;99923.09;4991076;28;20053;-85
2022/10/08 10:34:26;;;;;;;0.80;0.80;;;;;;;20.69;37.50;99913.09;4958337;28;20169;-86
2022/10/08 10:36:59;;;;;;;0.70;0.70;;;;;;;20.87;37.38;99930.75;4974400;28;20043;-85
2022/10/08 10:39:33;;;;;;;0.80;0.80;;;;;;;20.39;37.28;99908.69;4960110;28;20117;-85
2022/10/08 10:42:07;;;;;;;0.90;0.90;;;;;;;20.46;37.39;99903.69;4992926;28;20137;-85
2022/10/08 10:44:53;;;;;;;0.80;0.80;;;;;;;20.28;37.58;99891.53;4994826;28;20074;-85
2022/10/08 10:47:26;;;;;;;0.80;0.80;;;;;;;20.22;37.93;99903.63;4991194;28;20050;-84
2022/10/08 10:50:00;;;;;;;0.80;0.80;;;;;;;20.62;36.98;99887.94;4973963;28;20461;-87
2022/10/08 10:52:41;;;;;;;0.80;0.80;;;;;;;20.99;36.05;99883.72;4975302;28;20525;-85
2022/10/08 10:55:34;;;;;;;0.80;0.80;;;;;;;20.19;37.51;99892.41;4994854;28;20141;-84
2022/10/08 10:58:12;;;;;;;0.80;0.80;;;;;;;19.48;38.97;99911.75;4975460;28;20108;-86
2022/10/08 11:01:00;;;;;;;0.80;0.80;;;;;;;18.94;40.59;99898.00;4989128;28;20042;-86
2022/10/08 11:03:36;;;;;;;0.88;0.88;;;;;;;19.55;39.35;99891.47;4983811;28;20058;-85
2022/10/08 11:06:48;;;;;;;0.80;0.80;;;;;;;20.36;38.43;99881.84;4986978;28;20046;-82
2022/10/08 11:09:34;;;;;;;0.85;0.85;;;;;;;20.29;37.25;99876.69;4981567;28;20089;-84
2022/10/08 11:15:09;;;;;;;0.80;0.80;;;;;;;20.97;36.45;99866.72;5100088;27;1376912;-88
2022/10/08 11:17:49;;;;;;;0.70;0.70;;;;;;;20.26;37.51;99854.53;5110693;28;20047;-85
2022/10/08 11:20:40;;;;;;;0.70;0.70;;;;;;;21.09;37.17;99867.13;5109566;28;20067;-84
2022/10/08 11:23:37;;;;;;;0.80;0.80;;;;;;;22.39;34.76;99864.97;5111564;28;20067;-87
2022/10/08 11:26:26;;;;;;;0.70;0.70;;;;;;;21.78;35.23;99859.34;5127824;28;20462;-86
2022/10/08 11:29:08;;;;;;;0.80;0.80;;;;;;;20.38;37.48;99851.41;5122587;28;20057;-84
2022/10/08 11:31:47;;;;;;;0.80;0.80;;;;;;;20.49;37.02;99853.75;5092459;28;20047;-84
2022/10/08 11:34:31;;;;;;;0.80;0.80;;;;;;;20.78;36.56;99833.72;5092604;28;20044;-88
2022/10/08 11:37:27;;;;;;;0.80;0.80;;;;;;;20.62;37.19;99835.03;5125457;28;20130;-87
2022/10/08 11:40:18;;;;;;;0.70;0.70;;;;;;;21.30;36.11;99828.44;5102717;28;20177;-83
2022/10/08 11:43:01;;;;;;;0.63;0.63;;;;;;;21.54;35.15;99862.13;5103024;28;20432;-85
2022/10/08 11:45:37;;;;;;;0.70;0.70;;;;;;;19.96;37.55;99841.91;5096162;28;20156;-85
2022/10/08 11:48:24;;;;;;;0.70;0.70;;;;;;;19.76;37.90;99837.41;5122920;28;20143;-85
2022/10/08 11:51:20;;;;;;;0.70;0.70;;;;;;;20.65;36.20;99835.25;5125353;28;20142;-87
2022/10/08 11:54:09;;;;;;;0.70;0.70;;;;;;;20.81;35.88;99808.44;5126579;28;20063;-87
2022/10/08 11:56:45;;;;;;;0.70;0.70;;;;;;;21.26;35.00;99821.88;5129643;28;20047;-86
2022/10/08 11:59:38;;;;;;;0.70;0.70;;;;;;;21.31;35.03;99808.09;5076462;28;20047;-86
2022/10/08 12:02:25;;;;;;;0.70;0.70;;;;;;;20.83;36.12;99797.19;5124719;28;20461;-87